createdAt,value
2022-09-07T00:02:20.713Z,101392.03
2022-09-07T00:04:47.285Z,101386.22
2022-09-07T00:07:13.999Z,101382.66
2022-09-07T00:09:40.611Z,101383.16
2022-09-07T00:12:07.280Z,101380.41
2022-09-07T00:14:34.602Z,101367.19
2022-09-07T00:17:01.181Z,101358.34
2022-09-07T00:19:27.785Z,101360.03
2022-09-07T00:21:54.421Z,101361.69
2022-09-07T00:24:21.001Z,101360.53
2022-09-07T00:26:47.608Z,101363.91
2022-09-07T00:29:14.162Z,101358.75
2022-09-07T00:31:40.791Z,101358.75
2022-09-07T00:34:07.522Z,101353.78
2022-09-07T00:36:34.201Z,101362.03
2022-09-07T00:39:00.838Z,101363.34
2022-09-07T00:41:27.654Z,101354.84
2022-09-07T00:43:59.760Z,101355.19
2022-09-07T00:46:28.836Z,101349.63
2022-09-07T00:48:59.810Z,101342.53
2022-09-07T00:51:40.857Z,101341.38
2022-09-07T00:54:15.542Z,101332.56
2022-09-07T00:56:45.040Z,101330.16
2022-09-07T00:59:14.353Z,101330.22
2022-09-07T01:01:41.447Z,101322.56
2022-09-07T01:04:09.178Z,101323.13
2022-09-07T01:06:37.586Z,101321.22
2022-09-07T01:09:07.137Z,101327.53
2022-09-07T01:11:35.118Z,101323.38
2022-09-07T01:14:04.853Z,101326.44
2022-09-07T01:17:05.318Z,101318.47
2022-09-07T01:19:59.497Z,101322.28
2022-09-07T01:22:52.467Z,101322.84
2022-09-07T01:25:49.695Z,101322.22
2022-09-07T01:28:21.832Z,101315.19
2022-09-07T01:30:58.061Z,101316.81
2022-09-07T01:33:48.840Z,101311.88
2022-09-07T01:36:18.167Z,101304.09
2022-09-07T01:38:50.439Z,101305.81
2022-09-07T01:41:25.493Z,101297.16
2022-09-07T01:44:01.041Z,101294.91
2022-09-07T01:46:36.397Z,101300.75
2022-09-07T01:49:10.448Z,101295.16
2022-09-07T01:51:42.547Z,101296.59
2022-09-07T01:54:21.389Z,101297.72
2022-09-07T01:56:51.139Z,101291.22
2022-09-07T01:59:28.675Z,101293.38
2022-09-07T02:02:04.215Z,101297.00
2022-09-07T02:04:48.625Z,101294.78
2022-09-07T02:07:26.910Z,101284.06
2022-09-07T02:10:06.617Z,101289.56
2022-09-07T02:12:39.441Z,101298.94
2022-09-07T02:15:14.737Z,101288.00
2022-09-07T02:17:54.431Z,101290.16
2022-09-07T02:20:29.495Z,101289.88
2022-09-07T02:23:00.395Z,101281.38
2022-09-07T02:25:37.891Z,101284.72
2022-09-07T02:28:12.452Z,101296.31
2022-09-07T02:30:39.134Z,101285.84
2022-09-07T02:33:06.023Z,101292.63
2022-09-07T02:35:33.188Z,101291.28
2022-09-07T02:38:03.142Z,101294.09
2022-09-07T02:40:30.022Z,101286.34
2022-09-07T02:43:00.196Z,101278.34
2022-09-07T02:45:33.779Z,101278.16
2022-09-07T02:48:06.439Z,101274.31
2022-09-07T02:50:58.732Z,101271.00
2022-09-07T02:53:39.560Z,101272.97
2022-09-07T02:56:39.183Z,101265.50
2022-09-07T02:59:30.313Z,101271.31
2022-09-07T03:02:12.352Z,101275.94
2022-09-07T03:04:48.913Z,101272.97
2022-09-07T03:07:29.478Z,101269.84
2022-09-07T03:09:57.999Z,101269.78
2022-09-07T03:12:24.950Z,101270.31
2022-09-07T03:14:51.551Z,101260.41
2022-09-07T03:17:18.267Z,101250.50
2022-09-07T03:19:44.863Z,101256.31
2022-09-07T03:22:11.491Z,101256.53
2022-09-07T03:24:38.100Z,101249.22
2022-09-07T03:27:04.737Z,101241.19
2022-09-07T03:29:31.400Z,101234.59
2022-09-07T03:31:57.979Z,101234.81
2022-09-07T03:34:24.570Z,101224.63
2022-09-07T03:36:51.143Z,101223.03
2022-09-07T03:39:20.973Z,101222.78
2022-09-07T03:41:47.910Z,101225.72
2022-09-07T03:44:14.526Z,101223.28
2022-09-07T03:46:41.194Z,101217.47
2022-09-07T03:49:07.769Z,101215.59
2022-09-07T03:51:34.331Z,101210.59
2022-09-07T03:54:00.951Z,101211.63
2022-09-07T03:56:28.272Z,101214.38
2022-09-07T03:58:55.665Z,101211.84
2022-09-07T04:01:24.815Z,101217.13
2022-09-07T04:03:52.122Z,101212.75
2022-09-07T04:06:19.841Z,101207.56
2022-09-07T04:08:46.689Z,101193.34
2022-09-07T04:11:16.385Z,101197.16
2022-09-07T04:13:43.454Z,101188.94
2022-09-07T04:16:24.235Z,101174.59
2022-09-07T04:18:54.701Z,101177.94
2022-09-07T04:21:27.032Z,101171.97
2022-09-07T04:23:53.876Z,101176.91
2022-09-07T04:26:32.380Z,101163.38
2022-09-07T04:29:01.172Z,101175.88
2022-09-07T04:31:28.825Z,101176.66
2022-09-07T04:33:56.514Z,101189.03
2022-09-07T04:36:24.926Z,101190.00
2022-09-07T04:38:56.965Z,101198.63
2022-09-07T04:41:24.288Z,101214.78
2022-09-07T04:43:55.245Z,101267.00
2022-09-07T04:46:33.933Z,101315.22
2022-09-07T04:49:04.021Z,101341.56
2022-09-07T04:51:32.193Z,101335.81
2022-09-07T04:54:00.862Z,101293.56
2022-09-07T04:56:27.440Z,101254.00
2022-09-07T04:58:54.391Z,101246.19
2022-09-07T05:01:23.394Z,101266.03
2022-09-07T05:03:50.322Z,101277.22
2022-09-07T05:06:18.986Z,101282.97
2022-09-07T05:08:51.652Z,101263.84
2022-09-07T05:11:18.995Z,101278.94
2022-09-07T05:13:45.852Z,101304.50
2022-09-07T05:16:21.173Z,101278.75
2022-09-07T05:18:53.130Z,101284.78
2022-09-07T05:21:22.870Z,101293.34
2022-09-07T05:23:51.436Z,101265.59
2022-09-07T05:26:19.196Z,101274.47
2022-09-07T05:28:46.156Z,101288.34
2022-09-07T05:36:37.359Z,101277.88
2022-09-07T05:39:05.901Z,101278.38
2022-09-07T05:41:32.521Z,101272.06
2022-09-07T05:46:45.793Z,101267.91
2022-09-07T05:49:12.744Z,101261.88
2022-09-07T05:51:39.349Z,101253.69
2022-09-07T05:54:06.040Z,101257.59
2022-09-07T05:56:36.440Z,101242.28
2022-09-07T05:59:03.710Z,101246.09
2022-09-07T06:01:30.868Z,101239.56
2022-09-07T06:03:58.039Z,101247.00
2022-09-07T06:06:24.674Z,101240.38
2022-09-07T06:08:52.794Z,101243.19
2022-09-07T06:11:24.335Z,101249.50
2022-09-07T06:13:52.070Z,101250.28
2022-09-07T06:16:20.230Z,101255.63
2022-09-07T06:18:48.978Z,101254.22
2022-09-07T06:21:21.097Z,101257.75
2022-09-07T06:23:48.851Z,101261.13
2022-09-07T06:26:17.118Z,101261.97
2022-09-07T06:28:49.175Z,101268.59
2022-09-07T06:31:19.913Z,101276.03
2022-09-07T06:33:47.840Z,101275.22
2022-09-07T06:36:19.904Z,101273.81
2022-09-07T06:38:47.613Z,101276.63
2022-09-07T06:44:12.651Z,101267.25
2022-09-07T06:49:26.287Z,101271.13
2022-09-07T06:51:53.218Z,101273.34
2022-09-07T06:57:09.414Z,101280.50
2022-09-07T06:59:37.303Z,101286.00
2022-09-07T07:02:05.976Z,101281.53
2022-09-07T07:04:37.760Z,101292.31
2022-09-07T07:07:06.536Z,101283.22
2022-09-07T07:09:33.193Z,101287.66
2022-09-07T07:11:59.756Z,101288.47
2022-09-07T07:14:26.874Z,101290.41
2022-09-07T07:16:53.996Z,101290.38
2022-09-07T07:19:20.569Z,101284.28
2022-09-07T07:22:14.467Z,101285.91
2022-09-07T07:24:33.666Z,101277.03
2022-09-07T07:27:00.440Z,101277.34
2022-09-07T07:29:28.287Z,101273.56
2022-09-07T07:31:55.160Z,101271.38
2022-09-07T07:34:21.940Z,101266.34
2022-09-07T07:36:48.491Z,101252.28
2022-09-07T07:42:05.861Z,101247.97
2022-09-07T07:44:32.922Z,101234.97
2022-09-07T07:46:59.703Z,101226.63
2022-09-07T07:49:26.885Z,101224.59
2022-09-07T07:54:44.133Z,101215.44
2022-09-07T07:57:11.848Z,101208.31
2022-09-07T07:59:39.223Z,101181.56
2022-09-07T08:02:08.995Z,101181.69
2022-09-07T08:04:36.301Z,101195.63
2022-09-07T08:07:09.506Z,101192.00
2022-09-07T08:09:44.876Z,101202.00
2022-09-07T08:12:16.712Z,101209.69
2022-09-07T08:14:43.556Z,101212.00
2022-09-07T08:17:12.424Z,101211.72
2022-09-07T08:19:39.087Z,101217.66
2022-09-07T08:22:06.408Z,101223.47
2022-09-07T08:24:33.561Z,101220.22
2022-09-07T08:27:00.118Z,101221.56
2022-09-07T08:29:27.290Z,101225.03
2022-09-07T08:31:54.493Z,101238.50
2022-09-07T08:34:22.023Z,101240.09
2022-09-07T08:36:48.808Z,101245.81
2022-09-07T08:39:15.430Z,101241.78
2022-09-07T08:41:51.191Z,101257.19
2022-09-07T08:44:48.232Z,101264.09
2022-09-07T08:47:35.143Z,101261.94
2022-09-07T08:50:04.482Z,101263.38
2022-09-07T08:52:54.360Z,101242.97
2022-09-07T08:55:29.352Z,101226.16
2022-09-07T08:58:04.637Z,101231.84
2022-09-07T09:00:31.593Z,101225.72
2022-09-07T09:06:00.231Z,101236.97
2022-09-07T09:08:48.659Z,101246.22
2022-09-07T09:11:48.155Z,101254.97
2022-09-07T09:17:35.420Z,101253.56
2022-09-07T09:20:26.620Z,101261.16
2022-09-07T09:23:12.283Z,101260.53
2022-09-07T09:25:45.937Z,101252.94
2022-09-07T09:28:13.000Z,101246.19
2022-09-07T09:30:39.681Z,101250.72
2022-09-07T09:33:25.900Z,101242.13
2022-09-07T09:35:55.041Z,101242.88
2022-09-07T09:38:32.169Z,101242.72
2022-09-07T09:41:11.182Z,101241.75
2022-09-07T09:43:58.216Z,101242.53
2022-09-07T09:46:37.246Z,101250.53
2022-09-07T09:49:14.332Z,101247.06
2022-09-07T09:54:40.777Z,101225.00
2022-09-07T09:57:16.831Z,101231.38
2022-09-07T10:00:02.665Z,101239.69
2022-09-07T10:05:28.125Z,101235.69
2022-09-07T10:07:55.062Z,101232.19
2022-09-07T10:10:21.792Z,101229.44
2022-09-07T10:12:55.866Z,101230.28
2022-09-07T10:15:40.574Z,101235.25
2022-09-07T10:18:18.745Z,101222.28
2022-09-07T10:20:45.450Z,101226.13
2022-09-07T10:23:23.342Z,101221.69
2022-09-07T10:25:50.082Z,101219.78
2022-09-07T10:28:20.295Z,101228.06
2022-09-07T10:31:15.010Z,101220.59
2022-09-07T10:37:03.584Z,101244.63
2022-09-07T10:39:40.640Z,101229.72
2022-09-07T10:42:22.387Z,101237.13
2022-09-07T10:45:04.407Z,101228.88
2022-09-07T10:47:33.982Z,101222.22
2022-09-07T10:50:24.935Z,101212.84
2022-09-07T10:52:51.451Z,101211.72
2022-09-07T10:55:26.220Z,101209.97
2022-09-07T10:58:07.994Z,101208.84
2022-09-07T11:00:45.843Z,101215.50
2022-09-07T11:03:28.153Z,101219.41
2022-09-07T11:06:19.070Z,101220.69
2022-09-07T11:09:18.104Z,101213.44
2022-09-07T11:12:03.085Z,101211.16
2022-09-07T11:14:36.846Z,101208.19
2022-09-07T11:17:17.169Z,101218.84
2022-09-07T11:19:54.011Z,101220.16
2022-09-07T11:22:39.271Z,101221.53
2022-09-07T11:25:35.079Z,101215.66
2022-09-07T11:28:21.072Z,101215.56
2022-09-07T11:31:00.395Z,101214.41
2022-09-07T11:33:35.118Z,101216.31
2022-09-07T11:36:12.032Z,101207.38
2022-09-07T11:38:49.475Z,101201.38
2022-09-07T11:41:46.152Z,101197.19
2022-09-07T11:44:26.610Z,101195.97
2022-09-07T11:47:34.727Z,101183.09
2022-09-07T11:50:01.331Z,101192.22
2022-09-07T11:52:43.169Z,101179.84
2022-09-07T11:55:21.046Z,101174.22
2022-09-07T11:58:00.173Z,101172.34
2022-09-07T12:01:04.271Z,101175.22
2022-09-07T12:03:53.839Z,101169.66
2022-09-07T12:06:43.314Z,101167.75
2022-09-07T12:09:37.880Z,101162.09
2022-09-07T12:12:25.850Z,101162.88
2022-09-07T12:15:33.086Z,101164.84
2022-09-07T12:18:05.620Z,101163.63
2022-09-07T12:20:46.637Z,101163.72
2022-09-07T12:23:16.102Z,101169.56
2022-09-07T12:25:44.701Z,101171.59
2022-09-07T12:28:34.483Z,101165.50
2022-09-07T12:31:06.985Z,101179.44
2022-09-07T12:33:36.661Z,101175.31
2022-09-07T12:36:25.863Z,101174.31
2022-09-07T12:39:06.307Z,101169.97
2022-09-07T12:42:31.929Z,101162.69
2022-09-07T12:44:38.189Z,101153.63
2022-09-07T12:47:10.725Z,101159.47
2022-09-07T12:50:06.476Z,101166.59
2022-09-07T12:53:07.935Z,101162.69
2022-09-07T12:59:19.484Z,101167.63
2022-09-07T13:02:27.784Z,101158.22
2022-09-07T13:04:54.464Z,101157.84
2022-09-07T13:08:07.986Z,101159.94
2022-09-07T13:10:43.070Z,101152.72
2022-09-07T13:13:15.830Z,101139.91
2022-09-07T13:15:49.484Z,101148.28
2022-09-07T13:18:28.653Z,101138.06
2022-09-07T13:21:07.306Z,101130.38
2022-09-07T13:23:35.780Z,101136.91
2022-09-07T13:26:04.834Z,101132.78
2022-09-07T13:28:40.170Z,101129.78
2022-09-07T13:31:41.084Z,101135.47
2022-09-07T13:34:32.554Z,101127.41
2022-09-07T13:37:00.569Z,101130.09
2022-09-07T13:39:29.083Z,101121.06
2022-09-07T13:41:58.311Z,101125.59
2022-09-07T13:44:32.211Z,101125.13
2022-09-07T13:47:26.431Z,101125.94
2022-09-07T13:50:19.421Z,101122.13
2022-09-07T13:53:01.292Z,101127.50
2022-09-07T13:55:37.602Z,101115.38
2022-09-07T13:58:25.245Z,101132.22
2022-09-07T14:01:04.646Z,101132.75
2022-09-07T14:03:39.291Z,101135.09
2022-09-07T14:06:21.305Z,101136.22
2022-09-07T14:08:50.632Z,101144.59
2022-09-07T14:11:22.433Z,101138.28
2022-09-07T14:14:25.942Z,101138.41
2022-09-07T14:17:01.893Z,101129.31
2022-09-07T14:19:41.874Z,101132.00
2022-09-07T14:22:39.625Z,101126.66
2022-09-07T14:25:07.839Z,101129.31
2022-09-07T14:27:46.312Z,101123.75
2022-09-07T14:30:29.441Z,101129.84
2022-09-07T14:33:17.290Z,101131.56
2022-09-07T14:35:44.311Z,101115.59
2022-09-07T14:38:14.290Z,101129.38
2022-09-07T14:40:41.553Z,101128.22
2022-09-07T14:43:28.600Z,101119.97
2022-09-07T14:46:30.073Z,101122.22
2022-09-07T14:49:02.594Z,101120.16
2022-09-07T14:51:36.140Z,101125.72
2022-09-07T14:54:07.941Z,101126.09
2022-09-07T14:56:38.093Z,101123.28
2022-09-07T14:59:40.699Z,101118.06
2022-09-07T15:02:19.736Z,101111.44
2022-09-07T15:04:48.073Z,101117.22
2022-09-07T15:07:30.590Z,101107.69
2022-09-07T15:10:32.398Z,101113.91
2022-09-07T15:13:01.384Z,101101.13
2022-09-07T15:15:34.633Z,101109.34
2022-09-07T15:18:08.804Z,101106.25
2022-09-07T15:20:36.927Z,101113.28
2022-09-07T15:23:29.911Z,101116.75
2022-09-07T15:25:58.756Z,101102.34
2022-09-07T15:34:19.350Z,101114.59
2022-09-07T15:36:53.609Z,101105.53
2022-09-07T15:39:26.643Z,101112.88
2022-09-07T15:41:53.474Z,101092.41
2022-09-07T15:44:24.961Z,101100.34
2022-09-07T15:49:53.775Z,101094.81
2022-09-07T15:52:20.656Z,101097.88
2022-09-07T15:54:47.162Z,101090.19
2022-09-07T16:00:00.835Z,101088.97
2022-09-07T16:05:14.231Z,101091.66
2022-09-07T16:10:31.016Z,101096.19
2022-09-07T16:13:02.698Z,101096.59
2022-09-07T16:15:30.367Z,101091.28
2022-09-07T16:17:57.121Z,101089.09
2022-09-07T16:20:23.745Z,101091.28
2022-09-07T16:25:37.476Z,101082.84
2022-09-07T16:28:05.811Z,101081.59
2022-09-07T16:30:32.825Z,101078.94
2022-09-07T16:32:59.472Z,101072.53
2022-09-07T16:35:26.031Z,101071.19
2022-09-07T16:40:42.223Z,101075.03
2022-09-07T16:43:10.006Z,101067.69
2022-09-07T16:48:23.412Z,101070.06
2022-09-07T16:50:58.941Z,101072.94
2022-09-07T16:53:32.216Z,101074.75
2022-09-07T16:56:12.522Z,101064.28
2022-09-07T16:58:41.955Z,101056.59
2022-09-07T17:01:10.811Z,101063.44
2022-09-07T17:03:38.637Z,101059.25
2022-09-07T17:06:07.967Z,101067.88
2022-09-07T17:08:36.143Z,101061.19
2022-09-07T17:11:05.586Z,101064.56
2022-09-07T17:13:34.094Z,101071.75
2022-09-07T17:16:08.344Z,101063.19
2022-09-07T17:21:22.771Z,101077.97
2022-09-07T17:23:54.916Z,101074.16
2022-09-07T17:26:26.585Z,101080.66
2022-09-07T17:29:00.213Z,101079.56
2022-09-07T17:34:23.241Z,101077.03
2022-09-07T17:36:49.832Z,101081.75
2022-09-07T17:39:17.992Z,101082.72
2022-09-07T17:41:45.674Z,101082.06
2022-09-07T17:44:12.465Z,101083.88
2022-09-07T17:46:39.422Z,101087.09
2022-09-07T17:49:10.403Z,101086.66
2022-09-07T17:51:37.064Z,101078.00
2022-09-07T17:54:10.921Z,101077.06
2022-09-07T17:56:39.284Z,101077.72
2022-09-07T18:01:54.297Z,101076.84
2022-09-07T18:04:21.385Z,101080.84
2022-09-07T18:06:48.435Z,101081.25
2022-09-07T18:09:15.106Z,101077.47
2022-09-07T18:11:45.946Z,101088.63
2022-09-07T18:14:14.577Z,101087.31
2022-09-07T18:16:43.462Z,101094.91
2022-09-07T18:19:12.120Z,101089.75
2022-09-07T18:21:41.098Z,101100.84
2022-09-07T18:24:19.244Z,101101.38
2022-09-07T18:26:52.047Z,101098.59
2022-09-07T18:29:30.005Z,101096.97
2022-09-07T18:32:00.326Z,101099.81
2022-09-07T18:34:28.755Z,101100.72
2022-09-07T18:36:55.540Z,101102.94
2022-09-07T18:39:23.101Z,101103.25
2022-09-07T18:41:49.808Z,101094.44
2022-09-07T18:47:03.635Z,101101.25
2022-09-07T18:49:30.787Z,101107.84
2022-09-07T18:54:45.469Z,101105.16
2022-09-07T18:57:16.234Z,101120.06
2022-09-07T18:59:43.688Z,101116.19
2022-09-07T19:02:11.251Z,101114.84
2022-09-07T19:07:29.670Z,101124.75
2022-09-07T19:09:56.842Z,101112.91
2022-09-07T19:12:24.785Z,101118.41
2022-09-07T19:14:51.945Z,101118.69
2022-09-07T19:17:20.598Z,101114.50
2022-09-07T19:19:48.604Z,101122.22
2022-09-07T19:22:16.083Z,101121.41
2022-09-07T19:24:42.685Z,101118.28
2022-09-07T19:27:09.969Z,101115.00
2022-09-07T19:29:36.490Z,101124.69
2022-09-07T19:32:06.979Z,101116.41
2022-09-07T19:34:36.042Z,101122.72
2022-09-07T19:37:04.537Z,101129.84
2022-09-07T19:39:32.174Z,101123.00
2022-09-07T19:42:00.182Z,101124.41
2022-09-07T19:44:26.818Z,101128.03
2022-09-07T19:46:54.187Z,101118.63
2022-09-07T19:49:21.495Z,101124.41
2022-09-07T19:51:52.221Z,101122.19
2022-09-07T19:54:19.263Z,101127.72
2022-09-07T19:56:46.709Z,101119.69
2022-09-07T19:59:14.782Z,101123.84
2022-09-07T20:01:46.539Z,101124.16
2022-09-07T20:04:19.809Z,101126.91
2022-09-07T20:06:48.504Z,101122.22
2022-09-07T20:09:15.081Z,101113.41
2022-09-07T20:11:46.278Z,101115.63
2022-09-07T20:14:13.797Z,101107.06
2022-09-07T20:16:41.753Z,101110.06
2022-09-07T20:19:11.009Z,101110.06
2022-09-07T20:21:37.631Z,101102.06
2022-09-07T20:24:05.275Z,101103.72
2022-09-07T20:26:32.606Z,101102.06
2022-09-07T20:29:16.705Z,101100.13
2022-09-07T20:31:47.085Z,101097.66
2022-09-07T20:34:14.445Z,101099.31
2022-09-07T20:36:41.506Z,101101.28
2022-09-07T20:39:08.143Z,101102.16
2022-09-07T20:41:35.187Z,101098.00
2022-09-07T20:44:04.345Z,101102.91
2022-09-07T20:46:31.875Z,101102.44
2022-09-07T20:48:59.199Z,101102.47
2022-09-07T20:51:26.178Z,101094.22
2022-09-07T20:53:52.889Z,101096.72
2022-09-07T20:56:29.225Z,101093.16
2022-09-07T20:59:00.124Z,101090.94
2022-09-07T21:01:27.810Z,101092.63
2022-09-07T21:03:56.635Z,101088.47
2022-09-07T21:06:25.071Z,101093.72
2022-09-07T21:08:52.385Z,101099.25
2022-09-07T21:11:24.783Z,101097.59
2022-09-07T21:14:08.356Z,101097.06
2022-09-07T21:16:36.406Z,101101.50
2022-09-07T21:19:05.895Z,101094.03
2022-09-07T21:21:39.430Z,101101.22
2022-09-07T21:24:07.494Z,101100.38
2022-09-07T21:26:34.032Z,101097.09
2022-09-07T21:29:02.809Z,101101.75
2022-09-07T21:31:31.332Z,101109.47
2022-09-07T21:34:00.114Z,101112.50
2022-09-07T21:36:27.409Z,101111.66
2022-09-07T21:38:54.459Z,101115.25
2022-09-07T21:41:22.876Z,101111.66
2022-09-07T21:43:53.679Z,101094.59
2022-09-07T21:46:20.293Z,101093.47
2022-09-07T21:48:46.876Z,101094.03
2022-09-07T21:51:14.335Z,101088.50
2022-09-07T21:53:42.071Z,101085.19
2022-09-07T21:56:14.118Z,101087.09
2022-09-07T21:58:41.093Z,101089.28
2022-09-07T22:01:12.700Z,101082.16
2022-09-07T22:03:40.419Z,101078.00
2022-09-07T22:06:08.437Z,101071.38
2022-09-07T22:08:37.026Z,101066.72
2022-09-07T22:11:26.790Z,101058.47
2022-09-07T22:13:55.770Z,101064.25
2022-09-07T22:16:22.552Z,101063.66
2022-09-07T22:18:49.445Z,101068.63
2022-09-07T22:21:19.887Z,101065.63
2022-09-07T22:23:49.893Z,101073.56
2022-09-07T22:26:21.539Z,101061.44
2022-09-07T22:28:48.707Z,101070.50
2022-09-07T22:31:17.230Z,101061.13
2022-09-07T22:33:45.012Z,101072.16
2022-09-07T22:36:15.717Z,101071.28
2022-09-07T22:38:44.034Z,101062.78
2022-09-07T22:41:19.885Z,101063.28
2022-09-07T22:43:46.887Z,101063.28
2022-09-07T22:46:14.927Z,101071.56
2022-09-07T22:48:42.139Z,101062.13
2022-09-07T22:51:09.523Z,101071.41
2022-09-07T22:53:37.783Z,101064.84
2022-09-07T22:56:10.593Z,101058.75
2022-09-07T22:58:37.761Z,101052.44
2022-09-07T23:01:05.926Z,101046.06
2022-09-07T23:03:34.541Z,101044.44
2022-09-07T23:06:01.889Z,101044.94
2022-09-07T23:08:28.998Z,101034.53
2022-09-07T23:10:55.574Z,101039.16
2022-09-07T23:13:22.225Z,101030.06
2022-09-07T23:15:49.468Z,101025.41
2022-09-07T23:18:18.818Z,101021.81
2022-09-07T23:20:45.731Z,101022.09
2022-09-07T23:23:13.422Z,101021.22
2022-09-07T23:25:42.284Z,101019.56
2022-09-07T23:28:12.581Z,101012.88
2022-09-07T23:30:42.396Z,101007.66
2022-09-07T23:33:08.928Z,101018.38
2022-09-07T23:35:36.046Z,101023.91
2022-09-07T23:38:02.684Z,101025.63
2022-09-07T23:40:30.495Z,101038.00
2022-09-07T23:42:57.507Z,101029.97
2022-09-07T23:45:24.779Z,101021.41
2022-09-07T23:47:51.407Z,101026.38
2022-09-07T23:50:18.587Z,101023.78
2022-09-07T23:52:45.493Z,101019.91
2022-09-07T23:55:12.222Z,101025.34
2022-09-07T23:57:39.038Z,101019.78
